Terminal Aerodrome Forecast
Issued by NWS Sioux Falls, SD

Home | Current Version | Previous Version | Text Only | Print | Product List | Glossary On
Versions: 1 2 3 4 5 6 7 8 9 10 11 12 13 14 15 16 17 18 19 20 21 22 23 24 25 26 27 28
000
FTUS43 KFSD 200500
TAFFSD
TAF
KFSD 200522Z 2006/2106 17010KT P6SM BKN200
     FM201500 18012KT P6SM SCT020
     FM201800 19015G22KT P6SM SCT030
     FM210100 17008KT P6SM SCT035=

USA.gov is the U.S. government's official web portal to all federal, state and local government web resources and services.